createdAt,value
2023-03-05T00:01:11.929Z,5.70
2023-03-05T00:03:43.978Z,6.57
2023-03-05T00:06:17.419Z,6.47
2023-03-05T00:08:49.743Z,5.83
2023-03-05T00:11:21.698Z,6.43
2023-03-05T00:13:53.526Z,6.73
2023-03-05T00:16:28.168Z,6.73
2023-03-05T00:19:01.291Z,6.43
2023-03-05T00:21:36.346Z,6.50
2023-03-05T00:24:14.234Z,6.00
2023-03-05T00:26:46.638Z,5.87
2023-03-05T00:29:19.690Z,5.50
2023-03-05T00:31:51.560Z,5.80
2023-03-05T00:34:23.521Z,6.23
2023-03-05T00:36:55.912Z,6.60
2023-03-05T00:39:27.783Z,6.17
2023-03-05T00:41:59.727Z,6.17
2023-03-05T00:44:31.440Z,7.13
2023-03-05T00:47:03.199Z,5.60
2023-03-05T00:49:34.956Z,7.47
2023-03-05T00:52:06.687Z,6.43
2023-03-05T00:54:38.448Z,6.03
2023-03-05T00:57:10.202Z,6.43
2023-03-05T00:59:41.950Z,6.63
2023-03-05T01:02:13.738Z,6.90
2023-03-05T01:04:47.230Z,6.63
2023-03-05T01:07:19.186Z,6.83
2023-03-05T01:09:50.942Z,6.43
2023-03-05T01:12:22.720Z,6.30
2023-03-05T01:14:54.507Z,6.90
2023-03-05T01:17:27.180Z,7.90
2023-03-05T01:19:58.963Z,7.83
2023-03-05T01:22:30.680Z,6.70
2023-03-05T01:25:02.562Z,5.93
2023-03-05T01:27:34.547Z,7.43
2023-03-05T01:30:07.792Z,6.43
2023-03-05T01:32:39.610Z,6.90
2023-03-05T01:35:17.431Z,6.27
2023-03-05T01:37:49.219Z,6.87
2023-03-05T01:40:26.198Z,7.80
2023-03-05T01:43:14.165Z,6.97
2023-03-05T01:46:23.329Z,7.00
2023-03-05T01:49:40.331Z,6.43
2023-03-05T01:52:19.543Z,7.80
2023-03-05T01:54:55.816Z,6.13
2023-03-05T01:57:33.369Z,7.93
2023-03-05T02:00:11.644Z,5.90
2023-03-05T02:02:49.025Z,6.80
2023-03-05T02:05:29.005Z,6.97
2023-03-05T02:08:03.139Z,6.80
2023-03-05T02:10:42.070Z,7.57
2023-03-05T02:13:17.918Z,6.73
2023-03-05T02:15:50.362Z,6.73
2023-03-05T02:18:22.651Z,6.63
2023-03-05T02:20:57.329Z,7.47
2023-03-05T02:23:33.719Z,7.70
2023-03-05T02:26:10.644Z,7.37
2023-03-05T02:28:50.675Z,8.67
2023-03-05T02:31:25.132Z,7.80
2023-03-05T02:33:57.220Z,7.37
2023-03-05T02:36:30.259Z,7.97
2023-03-05T02:39:02.622Z,7.13
2023-03-05T02:41:34.444Z,6.90
2023-03-05T02:44:06.308Z,7.17
2023-03-05T02:46:38.394Z,7.87
2023-03-05T02:49:10.177Z,6.60
2023-03-05T02:51:41.920Z,7.13
2023-03-05T02:54:13.908Z,7.63
2023-03-05T02:56:45.810Z,7.60
2023-03-05T02:59:17.543Z,8.67
2023-03-05T03:01:49.428Z,6.70
2023-03-05T03:04:21.127Z,7.07
2023-03-05T03:06:52.998Z,6.70
2023-03-05T03:09:25.964Z,8.87
2023-03-05T03:11:57.702Z,6.93
2023-03-05T03:14:39.171Z,7.30
2023-03-05T03:17:16.170Z,8.10
2023-03-05T03:19:48.164Z,9.30
2023-03-05T03:22:19.894Z,8.23
2023-03-05T03:24:51.650Z,7.47
2023-03-05T03:27:23.929Z,7.13
2023-03-05T03:29:55.747Z,7.30
2023-03-05T03:32:27.490Z,7.53
2023-03-05T03:34:59.583Z,7.40
2023-03-05T03:37:31.326Z,8.20
2023-03-05T03:40:05.671Z,7.47
2023-03-05T03:42:37.439Z,7.10
2023-03-05T03:45:09.563Z,7.00
2023-03-05T03:47:41.278Z,8.67
2023-03-05T03:50:13.044Z,7.53
2023-03-05T03:52:44.890Z,9.00
2023-03-05T03:55:16.653Z,8.37
2023-03-05T03:57:48.351Z,8.73
2023-03-05T04:00:20.437Z,6.97
2023-03-05T04:02:52.271Z,7.97
2023-03-05T04:05:24.210Z,7.43
2023-03-05T04:07:57.639Z,7.57
2023-03-05T04:10:29.527Z,8.80
2023-03-05T04:13:01.308Z,8.23
2023-03-05T04:15:34.956Z,6.47
2023-03-05T04:18:06.857Z,7.50
2023-03-05T04:20:38.588Z,7.20
2023-03-05T04:23:10.399Z,9.23
2023-03-05T04:25:42.124Z,7.17
2023-03-05T04:28:15.918Z,7.20
2023-03-05T04:30:47.827Z,7.57
2023-03-05T04:33:19.943Z,7.00
2023-03-05T04:35:52.228Z,7.37
2023-03-05T04:38:23.966Z,7.20
2023-03-05T04:40:55.673Z,7.73
2023-03-05T04:43:27.427Z,7.90
2023-03-05T04:45:59.151Z,8.10
2023-03-05T04:48:30.874Z,6.73
2023-03-05T04:51:02.809Z,7.97
2023-03-05T04:53:35.260Z,6.50
2023-03-05T04:56:07.509Z,8.07
2023-03-05T04:58:39.246Z,8.00
2023-03-05T05:01:11.037Z,6.87
2023-03-05T05:03:42.736Z,7.33
2023-03-05T05:06:14.463Z,6.67
2023-03-05T05:08:46.157Z,7.70
2023-03-05T05:11:18.149Z,7.73
2023-03-05T05:13:49.894Z,8.57
2023-03-05T05:16:21.730Z,7.00
2023-03-05T05:18:53.478Z,6.67
2023-03-05T05:21:25.189Z,7.47
2023-03-05T05:23:56.971Z,8.40
2023-03-05T05:26:28.732Z,7.43
2023-03-05T05:29:00.467Z,6.70
2023-03-05T05:31:32.283Z,7.80
2023-03-05T05:34:04.037Z,7.00
2023-03-05T05:36:35.763Z,8.33
2023-03-05T05:39:07.594Z,7.20
2023-03-05T05:41:39.385Z,7.60
2023-03-05T05:44:11.209Z,7.97
2023-03-05T05:46:42.980Z,7.23
2023-03-05T05:49:14.793Z,6.83
2023-03-05T05:51:46.502Z,6.57
2023-03-05T05:54:18.229Z,7.63
2023-03-05T05:56:49.936Z,7.80
2023-03-05T05:59:21.691Z,8.30
2023-03-05T06:01:53.470Z,7.97
2023-03-05T06:04:25.246Z,7.90
2023-03-05T06:06:58.201Z,7.97
2023-03-05T06:09:29.971Z,8.43
2023-03-05T06:12:01.764Z,8.27
2023-03-05T06:14:33.516Z,7.87
2023-03-05T06:17:05.313Z,7.33
2023-03-05T06:19:37.005Z,7.93
2023-03-05T06:22:08.878Z,5.37
2023-03-05T06:24:40.742Z,8.23
2023-03-05T06:27:12.484Z,8.17
2023-03-05T06:29:44.215Z,8.40
2023-03-05T06:32:15.977Z,6.67
2023-03-05T06:34:47.819Z,7.23
2023-03-05T06:37:19.639Z,6.77
2023-03-05T06:39:51.364Z,8.60
2023-03-05T06:42:23.135Z,7.40
2023-03-05T06:44:54.841Z,6.83
2023-03-05T06:47:26.600Z,7.80
2023-03-05T06:49:58.308Z,6.27
2023-03-05T06:52:30.028Z,6.63
2023-03-05T06:55:01.762Z,7.13
2023-03-05T06:57:33.670Z,6.13
2023-03-05T07:00:09.945Z,6.73
2023-03-05T07:02:41.712Z,7.13
2023-03-05T07:05:13.586Z,6.17
2023-03-05T07:07:45.285Z,6.47
2023-03-05T07:10:17.085Z,7.53
2023-03-05T07:12:48.859Z,7.00
2023-03-05T07:15:20.664Z,7.40
2023-03-05T07:17:52.381Z,6.97
2023-03-05T07:20:24.100Z,8.80
2023-03-05T07:22:55.856Z,9.07
2023-03-05T07:25:27.711Z,7.10
2023-03-05T07:27:59.451Z,6.77
2023-03-05T07:30:31.612Z,6.33
2023-03-05T07:33:03.669Z,6.27
2023-03-05T07:35:40.427Z,5.90
2023-03-05T07:38:12.139Z,6.50
2023-03-05T07:40:43.839Z,6.53
2023-03-05T07:43:16.213Z,6.53
2023-03-05T07:45:49.014Z,7.47
2023-03-05T07:48:23.780Z,5.83
2023-03-05T07:51:10.325Z,6.77
2023-03-05T07:53:46.244Z,5.50
2023-03-05T07:56:24.166Z,6.40
2023-03-05T07:58:55.919Z,6.17
2023-03-05T08:01:29.132Z,5.80
2023-03-05T08:04:01.434Z,5.90
2023-03-05T08:06:33.387Z,6.60
2023-03-05T08:09:05.136Z,6.40
2023-03-05T08:11:36.828Z,5.77
2023-03-05T08:14:09.604Z,5.37
2023-03-05T08:16:41.349Z,5.70
2023-03-05T08:19:13.085Z,5.67
2023-03-05T08:21:45.365Z,6.67
2023-03-05T08:24:17.229Z,5.57
2023-03-05T08:26:49.225Z,5.50
2023-03-05T08:29:21.155Z,5.80
2023-03-05T08:31:55.552Z,4.80
2023-03-05T08:34:27.338Z,4.80
2023-03-05T08:36:59.062Z,4.23
2023-03-05T08:39:30.767Z,5.97
2023-03-05T08:42:03.587Z,5.77
2023-03-05T08:44:35.316Z,5.67
2023-03-05T08:47:07.137Z,5.83
2023-03-05T08:49:39.238Z,4.43
2023-03-05T08:52:11.045Z,4.30
2023-03-05T08:54:42.802Z,5.13
2023-03-05T08:57:14.515Z,5.23
2023-03-05T08:59:46.239Z,4.73
2023-03-05T09:02:18.916Z,4.47
2023-03-05T09:04:50.622Z,5.40
2023-03-05T09:07:22.347Z,3.07
2023-03-05T09:09:54.047Z,4.03
2023-03-05T09:12:25.744Z,5.33
2023-03-05T09:14:57.512Z,4.17
2023-03-05T09:17:29.276Z,5.23
2023-03-05T09:20:01.715Z,5.27
2023-03-05T09:22:33.580Z,6.03
2023-03-05T09:25:06.071Z,5.70
2023-03-05T09:27:38.423Z,5.93
2023-03-05T09:30:12.105Z,6.40
2023-03-05T09:32:43.908Z,5.57
2023-03-05T09:35:15.635Z,7.00
2023-03-05T09:37:47.412Z,6.80
2023-03-05T09:40:20.254Z,6.83
2023-03-05T09:43:13.098Z,7.57
2023-03-05T09:46:09.960Z,5.33
2023-03-05T09:48:51.969Z,6.63
2023-03-05T09:51:34.887Z,6.37
2023-03-05T09:54:13.321Z,6.60
2023-03-05T09:56:53.176Z,5.67
2023-03-05T10:00:08.087Z,6.47
2023-03-05T10:02:53.563Z,5.53
2023-03-05T10:05:33.276Z,6.43
2023-03-05T10:08:06.117Z,6.67
2023-03-05T10:10:44.330Z,6.40
2023-03-05T10:13:26.946Z,6.03
2023-03-05T10:16:23.255Z,5.90
2023-03-05T10:19:11.425Z,6.20
2023-03-05T10:21:53.693Z,6.67
2023-03-05T10:24:55.243Z,6.70
2023-03-05T10:27:54.169Z,7.43
2023-03-05T10:30:54.701Z,4.97
2023-03-05T10:33:33.660Z,6.50
2023-03-05T10:36:31.995Z,5.70
2023-03-05T10:39:31.148Z,6.70
2023-03-05T10:42:07.999Z,6.80
2023-03-05T10:44:43.861Z,5.47
2023-03-05T10:47:41.124Z,5.20
2023-03-05T10:50:26.172Z,6.20
2023-03-05T10:53:26.602Z,5.07
2023-03-05T10:56:03.778Z,6.50
2023-03-05T10:58:35.452Z,5.37
2023-03-05T11:01:25.109Z,4.93
2023-03-05T11:04:05.406Z,5.47
2023-03-05T11:06:48.209Z,5.87
2023-03-05T11:09:29.265Z,6.07
2023-03-05T11:12:08.344Z,6.07
2023-03-05T11:15:02.304Z,5.43
2023-03-05T11:17:44.439Z,6.50
2023-03-05T11:20:34.575Z,6.87
2023-03-05T11:23:20.114Z,5.40
2023-03-05T11:25:57.687Z,5.53
2023-03-05T11:28:41.825Z,7.33
2023-03-05T11:31:16.675Z,8.50
2023-03-05T11:34:05.200Z,6.70
2023-03-05T11:36:39.356Z,5.77
2023-03-05T11:39:16.924Z,5.80
2023-03-05T11:41:56.058Z,5.53
2023-03-05T11:44:46.767Z,5.17
2023-03-05T11:47:43.233Z,4.63
2023-03-05T11:50:25.575Z,5.43
2023-03-05T11:53:21.775Z,4.97
2023-03-05T11:55:59.897Z,4.80
2023-03-05T11:58:37.211Z,5.43
2023-03-05T12:01:33.557Z,4.70
2023-03-05T12:04:05.488Z,5.17
2023-03-05T12:06:57.724Z,4.97
2023-03-05T12:09:42.221Z,3.93
2023-03-05T12:12:40.852Z,5.63
2023-03-05T12:15:12.634Z,3.87
2023-03-05T12:18:14.399Z,4.77
2023-03-05T12:21:04.459Z,4.70
2023-03-05T12:23:51.746Z,4.73
2023-03-05T12:27:02.073Z,5.33
2023-03-05T12:29:43.184Z,5.13
2023-03-05T12:32:31.410Z,4.37
2023-03-05T12:35:22.527Z,5.67
2023-03-05T12:37:54.312Z,4.13
2023-03-05T12:40:34.314Z,4.63
2023-03-05T12:43:29.961Z,4.40
2023-03-05T12:46:40.700Z,4.93
2023-03-05T12:49:18.194Z,4.17
2023-03-05T12:51:52.235Z,4.53
2023-03-05T12:54:39.812Z,4.87
2023-03-05T12:57:20.277Z,4.63
2023-03-05T13:00:22.619Z,5.87
2023-03-05T13:02:58.746Z,5.00
2023-03-05T13:05:34.229Z,4.00
2023-03-05T13:08:22.762Z,4.13
2023-03-05T13:11:00.591Z,4.13
2023-03-05T13:13:38.752Z,3.73
2023-03-05T13:16:19.660Z,4.27
2023-03-05T13:18:53.558Z,2.80
2023-03-05T13:21:28.960Z,4.67
2023-03-05T13:24:03.152Z,2.37
2023-03-05T13:26:40.381Z,3.40
2023-03-05T13:29:18.223Z,3.80
2023-03-05T13:31:54.719Z,2.77
2023-03-05T13:34:37.448Z,2.67
2023-03-05T13:37:18.099Z,3.90
2023-03-05T13:39:57.606Z,2.50
2023-03-05T13:42:34.829Z,3.47
2023-03-05T13:45:20.574Z,3.37
2023-03-05T13:47:56.689Z,3.70
2023-03-05T13:50:32.426Z,2.93
2023-03-05T13:53:25.080Z,3.17
2023-03-05T13:56:00.162Z,2.03
2023-03-05T13:58:52.816Z,2.70
2023-03-05T14:01:41.656Z,1.83
2023-03-05T14:04:13.354Z,1.77
2023-03-05T14:06:47.823Z,1.60
2023-03-05T14:09:22.392Z,2.30
2023-03-05T14:11:54.156Z,1.77
2023-03-05T14:14:27.177Z,1.97
2023-03-05T14:17:21.936Z,2.27
2023-03-05T14:20:24.025Z,1.53
2023-03-05T14:22:58.705Z,1.27
2023-03-05T14:25:42.007Z,1.70
2023-03-05T14:28:16.454Z,1.27
2023-03-05T14:30:52.336Z,1.10
2023-03-05T14:33:31.656Z,1.70
2023-03-05T14:36:04.544Z,1.10
2023-03-05T14:38:40.711Z,1.10
2023-03-05T14:41:22.789Z,1.70
2023-03-05T14:43:55.962Z,1.47
2023-03-05T14:46:28.936Z,0.80
2023-03-05T14:49:00.716Z,1.20
2023-03-05T14:51:37.433Z,1.57
2023-03-05T14:54:22.524Z,1.43
2023-03-05T14:56:54.393Z,1.40
2023-03-05T14:59:26.150Z,1.80
2023-03-05T15:01:58.049Z,1.80
2023-03-05T15:04:29.811Z,2.07
2023-03-05T15:07:01.531Z,1.40
2023-03-05T15:09:33.373Z,2.10
2023-03-05T15:12:05.470Z,1.63
2023-03-05T15:14:37.170Z,1.87
2023-03-05T15:17:19.328Z,0.90
2023-03-05T15:19:51.095Z,1.53
2023-03-05T15:22:22.827Z,1.80
2023-03-05T15:24:54.536Z,1.27
2023-03-05T15:27:26.240Z,0.97
2023-03-05T15:29:59.549Z,1.20
2023-03-05T15:32:31.573Z,2.27
2023-03-05T15:35:03.497Z,1.30
2023-03-05T15:37:35.199Z,1.77
2023-03-05T15:40:07.524Z,3.37
2023-03-05T15:42:39.578Z,2.23
2023-03-05T15:45:11.391Z,2.13
2023-03-05T15:47:43.088Z,1.67
2023-03-05T15:50:14.784Z,2.17
2023-03-05T15:52:46.628Z,2.77
2023-03-05T15:55:18.445Z,2.13
2023-03-05T15:57:52.005Z,2.20
2023-03-05T16:00:29.107Z,1.97
2023-03-05T16:03:00.935Z,1.60
2023-03-05T16:05:35.317Z,2.00
2023-03-05T16:08:07.727Z,1.90
2023-03-05T16:10:40.962Z,1.93
2023-03-05T16:13:15.967Z,2.37
2023-03-05T16:15:52.806Z,2.30
2023-03-05T16:18:25.424Z,2.93
2023-03-05T16:20:57.515Z,2.97
2023-03-05T16:23:29.538Z,4.10
2023-03-05T16:26:01.242Z,4.43
2023-03-05T16:28:32.974Z,3.70
2023-03-05T16:31:05.259Z,4.87
2023-03-05T16:33:36.955Z,4.37
2023-03-05T16:36:11.510Z,5.20
2023-03-05T16:38:43.225Z,3.00
2023-03-05T16:41:16.595Z,2.43
2023-03-05T16:43:48.307Z,3.07
2023-03-05T16:46:20.368Z,2.67
2023-03-05T16:48:52.359Z,2.23
2023-03-05T16:51:24.733Z,2.33
2023-03-05T16:53:56.698Z,2.17
2023-03-05T16:56:28.464Z,2.67
2023-03-05T16:59:00.280Z,2.60
2023-03-05T17:01:32.507Z,3.30
2023-03-05T17:04:04.403Z,2.47
2023-03-05T17:06:36.160Z,1.70
2023-03-05T17:09:07.916Z,3.87
2023-03-05T17:11:40.186Z,3.27
2023-03-05T17:14:12.112Z,4.90
2023-03-05T17:16:44.112Z,4.37
2023-03-05T17:19:16.802Z,4.03
2023-03-05T17:21:51.080Z,3.53
2023-03-05T17:24:23.356Z,5.83
2023-03-05T17:26:55.112Z,6.03
2023-03-05T17:29:26.891Z,4.53
2023-03-05T17:31:58.716Z,4.53
2023-03-05T17:34:36.472Z,3.47
2023-03-05T17:37:08.712Z,3.60
2023-03-05T17:39:43.664Z,3.10
2023-03-05T17:42:15.801Z,3.40
2023-03-05T17:47:26.322Z,3.80
2023-03-05T17:49:58.478Z,3.87
2023-03-05T17:52:30.332Z,4.50
2023-03-05T17:55:02.329Z,3.87
2023-03-05T17:57:34.432Z,2.57
2023-03-05T18:00:07.930Z,2.83
2023-03-05T18:02:43.931Z,3.43
2023-03-05T18:05:15.851Z,2.83
2023-03-05T18:07:48.421Z,3.20
2023-03-05T18:10:21.648Z,3.97
2023-03-05T18:12:54.247Z,2.63
2023-03-05T18:15:27.525Z,4.20
2023-03-05T18:18:00.061Z,2.83
2023-03-05T18:20:37.351Z,4.20
2023-03-05T18:23:09.860Z,8.73
2023-03-05T18:25:41.828Z,5.57
2023-03-05T18:28:16.020Z,3.53
2023-03-05T18:30:48.013Z,3.57
2023-03-05T18:33:23.601Z,2.93
2023-03-05T18:35:57.502Z,3.73
2023-03-05T18:38:31.373Z,2.20
2023-03-05T18:41:03.425Z,2.50
2023-03-05T18:43:35.621Z,2.17
2023-03-05T18:46:08.366Z,2.07
2023-03-05T18:48:40.253Z,2.10
2023-03-05T18:51:17.561Z,2.27
2023-03-05T18:53:51.092Z,1.80
2023-03-05T18:56:23.702Z,2.13
2023-03-05T18:58:56.978Z,2.03
2023-03-05T19:01:29.803Z,2.30
2023-03-05T19:04:01.608Z,2.07
2023-03-05T19:06:35.481Z,2.37
2023-03-05T19:09:16.942Z,3.00
2023-03-05T19:11:48.728Z,2.30
2023-03-05T19:14:20.442Z,2.47
2023-03-05T19:16:52.177Z,2.23
2023-03-05T19:19:24.535Z,2.30
2023-03-05T19:21:59.637Z,2.03
2023-03-05T19:24:32.413Z,2.10
2023-03-05T19:27:10.979Z,3.83
2023-03-05T19:29:43.685Z,3.00
2023-03-05T19:32:17.876Z,2.10
2023-03-05T19:34:50.422Z,3.37
2023-03-05T19:37:22.306Z,3.10
2023-03-05T19:39:54.232Z,2.90
2023-03-05T19:42:25.979Z,3.40
2023-03-05T19:44:59.948Z,2.20
2023-03-05T19:47:32.176Z,2.37
2023-03-05T19:50:05.356Z,3.23
2023-03-05T19:52:37.092Z,2.20
2023-03-05T19:55:09.500Z,3.80
2023-03-05T19:57:41.415Z,2.40
2023-03-05T20:00:14.712Z,2.73
2023-03-05T20:02:48.500Z,2.80
2023-03-05T20:05:23.009Z,2.83
2023-03-05T20:07:54.725Z,2.97
2023-03-05T20:10:26.620Z,2.80
2023-03-05T20:12:58.404Z,2.40
2023-03-05T20:15:30.244Z,2.53
2023-03-05T20:18:01.942Z,2.90
2023-03-05T20:20:33.670Z,3.60
2023-03-05T20:23:05.463Z,3.37
2023-03-05T20:25:40.047Z,3.37
2023-03-05T20:28:11.774Z,2.73
2023-03-05T20:30:43.902Z,2.60
2023-03-05T20:33:15.682Z,2.93
2023-03-05T20:35:47.417Z,2.90
2023-03-05T20:38:21.074Z,2.60
2023-03-05T20:40:55.891Z,2.40
2023-03-05T20:43:36.617Z,3.37
2023-03-05T20:46:32.820Z,2.80
2023-03-05T20:49:04.942Z,3.13
2023-03-05T20:51:38.095Z,2.43
2023-03-05T20:54:12.999Z,2.90
2023-03-05T20:56:44.795Z,2.40
2023-03-05T20:59:17.556Z,2.10
2023-03-05T21:01:49.386Z,2.43
2023-03-05T21:04:21.179Z,2.77
2023-03-05T21:06:53.245Z,2.93
2023-03-05T21:09:25.137Z,2.73
2023-03-05T21:11:56.859Z,2.47
2023-03-05T21:14:28.551Z,2.53
2023-03-05T21:17:00.314Z,2.80
2023-03-05T21:19:33.766Z,2.37
2023-03-05T21:22:05.605Z,2.23
2023-03-05T21:24:53.452Z,2.47
2023-03-05T21:27:25.146Z,2.77
2023-03-05T21:29:56.960Z,3.20
2023-03-05T21:32:28.781Z,2.43
2023-03-05T21:35:00.582Z,2.73
2023-03-05T21:37:32.527Z,2.37
2023-03-05T21:40:04.579Z,3.00
2023-03-05T21:42:36.309Z,2.03
2023-03-05T21:45:09.785Z,2.70
2023-03-05T21:47:41.678Z,2.63
2023-03-05T21:50:14.746Z,3.37
2023-03-05T21:52:46.684Z,2.70
2023-03-05T21:55:22.566Z,2.40
2023-03-05T21:57:54.265Z,3.40
2023-03-05T22:00:27.022Z,2.70
2023-03-05T22:02:58.781Z,3.23
2023-03-05T22:05:30.537Z,2.87
2023-03-05T22:08:02.292Z,2.70
2023-03-05T22:10:34.260Z,2.23
2023-03-05T22:13:09.966Z,2.47
2023-03-05T22:15:47.091Z,2.77
2023-03-05T22:18:24.652Z,2.67
2023-03-05T22:20:57.677Z,2.40
2023-03-05T22:23:33.963Z,2.70
2023-03-05T22:26:07.805Z,2.20
2023-03-05T22:28:39.613Z,2.67
2023-03-05T22:31:11.856Z,2.43
2023-03-05T22:33:43.868Z,2.67
2023-03-05T22:36:15.704Z,2.30
2023-03-05T22:38:47.582Z,2.13
2023-03-05T22:41:20.780Z,2.40
2023-03-05T22:43:52.578Z,2.10
2023-03-05T22:46:26.435Z,1.93
2023-03-05T22:48:58.217Z,1.83
2023-03-05T22:51:30.039Z,1.87
2023-03-05T22:54:01.865Z,2.67
2023-03-05T22:56:33.697Z,3.40
2023-03-05T22:59:05.423Z,2.33
2023-03-05T23:01:37.201Z,2.20
2023-03-05T23:04:18.681Z,3.30
2023-03-05T23:06:50.409Z,3.17
2023-03-05T23:09:22.345Z,2.63
2023-03-05T23:11:54.070Z,2.80
2023-03-05T23:14:25.864Z,2.77
2023-03-05T23:16:57.626Z,3.50
2023-03-05T23:19:29.615Z,3.63
2023-03-05T23:22:01.315Z,2.50
2023-03-05T23:24:34.025Z,2.33
2023-03-05T23:27:06.784Z,2.73
2023-03-05T23:29:48.183Z,3.43
2023-03-05T23:32:19.958Z,2.80
2023-03-05T23:34:51.681Z,3.17
2023-03-05T23:37:23.538Z,3.00
2023-03-05T23:39:55.264Z,2.90
2023-03-05T23:42:26.951Z,3.00
2023-03-05T23:44:58.942Z,2.97
2023-03-05T23:47:30.753Z,2.70
2023-03-05T23:50:07.598Z,2.40
2023-03-05T23:52:39.815Z,2.50
2023-03-05T23:55:40.621Z,2.80
2023-03-05T23:58:13.355Z,3.23
